General Mitchell International Airport
KMKE : rendu visible

Aérodrome :











RETROUVEZ-NOUS SUR...

 
LOGIN :

S'inscrire | Disclaimer

   EN    FR    IT 

 









Légende :    VFR   VFR Marginal   IFR   IFR Intensif   IFR Très Intensif
Visi : 
Plafond : 
>= 8 km
>= 3000ft
5 à 8 km
1000 à 3000 ft
1500m à 5 km
500 à 1000 ft
800 à 1500m
200 à 500 ft
< 800m
< 200 ft
Symboles :   Orages  Brouillard  Fortes neiges  Fortes précipitations  Vent > 20 kt






- Altitude de l'aérodrome : 723 ft
- Code IATA : MKE


KMKE - General Mitchell International

DERNIER METAR :
  • 212152Z 21010KT 10SM BKN250 M03/M09 A3043 RMK AO2 SLP318 T10281089

METARs EXPIRÉS :
  • 212052Z 22013KT 10SM SCT250 M02/M09 A3044 RMK AO2 SLP321 T10221089 56023
  • 211952Z 23009KT 10SM SCT250 M02/M09 A3046 RMK AO2 SLP326 T10171089

TAF KMKE
Valide du 21 à 21h jusqu'au 23 à 00h UTC


212113Z 2121/2224 23012G21KT P6SM SCT250
FM221500 21015G24KT P6SM BKN150



MET'MAP, la Météo Aéronautique d'un coup d'oeil ! - Copyright ORBIFLY Décembre 2007 - Disclaimer

ORBIFLY MET'MAP TEAM :

Programmation & Développement : Alexandra Zaïnal
Sur une idée originale de : Baudouin d'Aumeries
Assistance à la programmation : Marc-Olivier Méhu
Soutien technique & logistique : Manuel Goepfert

Contact : metmap@orbifly.com




SOURCES & CREDITS :

   NOAA       Earth
Advisory